Fernando Acosta

Recruteur en chef - Sarmiento
21 Oct 2027
Jeudi
Processus

Personnalité

Adaptabilité (16) Ambition (8) Controverse (6) Loyauté (13) Pression (6) Professionnalisme (12) Sportivité (4) Tempérament (18)

Profil

Style d'entraînement Démocratique
Diplôme Continental B
Détermination 10
Gestion des joueurs 11
Motivation 10
Discipline 5
Satisfaction professionnelle
100%
Fatigue
0%
Rôle Recruteur en chef
Salaire 59.3K p/s
Contrat 14.03.2029

Performance

Comportement Bon
Efficacité de l'entraînement
43%
Développement des joueurs
20%
Prévention des blessures
60%
Mise en place tactique
40%

Événements récents

A participé à une réunion de recrutement maintenant
A recommandé une cible de transfert maintenant
A recommandé une cible de transfert maintenant
A participé à une réunion de recrutement 7j
A recommandé une cible de transfert 7j
A recommandé une cible de transfert 7j
A recommandé une cible de transfert 7j
A recommandé une cible de transfert 7j

Suivi en cours

119
Joueur Club Statut Capacité Confiance Observé Dernière observation Dernier vote
Lucas Barrientos Los Andes Actif 93 / 104 76% 1 28.06.2027 Approuver
Dion Beljo Standard Liege Négociation 131 / 132 66% 1 01.06.2027 Approuver
Andreas Trimmel Red Bull Salzburg Actif 131 / 131 60% 1 01.12.2026 Approuver
Amar Memić Casa Pia Négociation 127 / 128 62% 1 01.12.2026 Approuver
Nicolás Sumavil Platense Actif 116 / 115 40% 4 27.11.2026 -
Filip Marschall Stevenage Actif 113 / 103 40% 2 27.11.2026 -
Aidomo Emakhu Oxford United Actif 129 / 129 40% 1 27.11.2026 -
Ruben van Bommel Ferencvaros Actif 130 / 124 40% 1 27.11.2026 -
Santiago Montiel Independiente Actif 120 / 121 40% 1 27.11.2026 -
Lautaro Petruchi Gimnasia y Esgrima Actif 113 / 114 40% 3 25.11.2026 -
Dominik Takáč Slovan Bratislava Actif 124 / 138 40% 2 25.11.2026 -
Leandro Lozano Boca Juniors Actif 123 / 122 40% 1 24.11.2026 -
Esteban Glellel Quilmes Actif 124 / 118 40% 3 22.11.2026 -
János Uram Vasas Actif 96 / 93 40% 1 22.11.2026 -
Diego Romero Universitario Actif 121 / 128 40% 4 21.11.2026 -
Renato Solís Sporting Cristal Actif 127 / 120 40% 2 20.11.2026 -
Leopold Wahlstedt Rosenborg Actif 122 / 115 40% 3 20.11.2026 -
Martín Garay Tigre Actif 128 / 117 40% 1 20.11.2026 -
Žiga Repas NK Maribor Actif 122 / 124 40% 1 20.11.2026 -
Cristopher Varela Deportivo La Guaira Actif 114 / 114 40% 3 19.11.2026 -
Lucas Bruera Carabobo Actif 121 / 115 40% 7 19.11.2026 -
Martin Trnovský Podbrezova Actif 117 / 105 40% 1 19.11.2026 -
Mauro Casoli Talleres Actif 108 / 110 40% 1 17.11.2026 -
Mateusz Kochalski Dynamo Kyiv Actif 134 / 122 40% 1 17.11.2026 -
Patrik Demjén MTK Budapest Actif 121 / 113 40% 1 17.11.2026 -
Bradley Mabunda SuperSport United Actif 122 / 104 40% 1 16.11.2026 -
Santiago Silva CFR Cluj Actif 121 / 122 40% 10 15.11.2026 -
Rostislav Soldatenko Torpedo Moscow Actif 101 / 105 40% 1 15.11.2026 -
Bojan Milosavljević Lokomotiv Plovdiv Actif 110 / 99 40% 1 15.11.2026 -
Reda Khadra Qarabag Actif 130 / 136 40% 1 15.11.2026 -
Mandla Erasmus SuperSport United Actif 123 / 111 40% 1 15.11.2026 -
Drake Callender Minnesota United FC Actif 125 / 112 40% 2 13.11.2026 -
Tomás O'Connor Gimnasia y Esgrima Actif 114 / 128 40% 2 13.11.2026 -
Luka Gavran Toronto FC Actif 120 / 111 40% 2 13.11.2026 -
Everton Bala Levski Actif 124 / 120 40% 1 13.11.2026 -
Petar Stanić Ludogorets Actif 128 / 126 40% 1 10.11.2026 -
Marcelo Allende Mamelodi Sundowns Actif 136 / 137 40% 1 10.11.2026 -
CJ dos Santos San Diego Football Club Actif 103 / 102 40% 3 06.11.2026 -
Brian Bwire Polokwane City Actif 95 / 89 40% 1 06.11.2026 -
Agustín Lastra Estudiantes Actif 101 / 104 40% 1 04.11.2026 -
Mayckel Lahdo Malmo FF Actif 119 / 137 40% 1 03.11.2026 -
Gonzalo Ríos Independiente Rivadavia Actif 126 / 119 40% 1 03.11.2026 -
Franco Carretero Deportivo Lara Actif 93 / 93 40% 2 31.10.2026 -
Sipho Chaine Orlando Pirates Actif 116 / 111 40% 2 30.10.2026 -
Dayne St. Clair Inter Miami CF Actif 118 / 126 40% 3 30.10.2026 -
Mathías Bernatene Liverpool Montevideo Actif 104 / 95 40% 1 29.10.2026 -
Luis Corredor Estudiantes de Caracas Actif 97 / 96 40% 1 29.10.2026 -
Emiliano González Almagro Actif 113 / 118 40% 3 27.10.2026 -
Antonio Đaković HNK Vukovar 1991 Actif 106 / 104 40% 1 27.10.2026 -
Francisco Salerno Defensores Unidos Actif 109 / 106 40% 2 26.10.2026 -
Julián Palacios Unión de Santa Fe Actif 122 / 110 40% 1 26.10.2026 -
Bénie Traoré New York City Actif 115 / 115 40% 1 26.10.2026 -
Angelo Gattermayer Wolfsberger AC Actif 110 / 121 40% 1 26.10.2026 -
Matt Freese New York City Actif 121 / 118 40% 2 24.10.2026 -
Facundo Vila Estudiantes Actif 105 / 103 40% 1 24.10.2026 -
Rodrigo Morínigo Libertad Actif 119 / 122 40% 4 20.10.2026 -
Luke Southwood Bristol Rovers Actif 97 / 92 40% 1 20.10.2026 -
Ramiro Ruiz Rodríguez Atlético Tucumán Actif 120 / 125 40% 1 20.10.2026 -
Joaquín Pereyra Minnesota United FC Actif 139 / 121 40% 1 18.10.2026 -
Riqui Puig LA Galaxy Actif 135 / 129 40% 1 18.10.2026 -
Miguel Silva Carabobo Actif 111 / 114 40% 3 15.10.2026 -
Luis Ingolotti Atlético Tucumán Actif 114 / 114 40% 4 15.10.2026 -
Roman Celentano FC Cincinnati Actif 124 / 117 40% 3 14.10.2026 -
Ángel González Libertad Actif 105 / 103 40% 1 14.10.2026 -
Enzo Vázquez Central Norte Actif 109 / 106 40% 2 13.10.2026 -
David Da Costa Portland Timbers Actif 118 / 134 40% 1 13.10.2026 -
Iván Angulo Orlando City Actif 132 / 128 40% 1 13.10.2026 -
Patrick Schulte Columbus Crew Actif 125 / 119 40% 2 10.10.2026 -
Hannes Wolf New York City Actif 118 / 132 40% 1 08.10.2026 -
James Pantemis Portland Timbers Actif 125 / 118 40% 1 06.10.2026 -
Christian Krasnodar Actif 143 / 143 40% 2 05.10.2026 -
Siro Rosané Estudiantes Actif 121 / 119 40% 1 05.10.2026 -
Ralph Orquin Seattle Sounders Actif 129 / 127 40% 2 02.10.2026 -
Alexis Cuello San Lorenzo Actif 128 / 128 40% 1 02.10.2026 -
Vicente Poggi Godoy Cruz Actif 124 / 125 40% 1 02.10.2026 -
Alonso Martínez New York City Actif 126 / 129 40% 1 01.10.2026 -
Bryan Ramírez FC Cincinnati Actif 118 / 126 40% 1 01.10.2026 -
Tomás Silva Platense Actif 129 / 124 40% 1 30.09.2026 -
Manuel Roffo Cerro Porteno Actif 131 / 126 40% 3 27.09.2026 -
Fernando Martínez Central Córdoba SdE Actif 125 / 109 40% 1 26.09.2026 -
Lukas Engel Real Salt Lake Actif 122 / 127 40% 1 26.09.2026 -
Nahuel Pezzini Arsenal Actif 116 / 110 40% 1 26.09.2026 -
Juan Pablo Cisternas Antofagasta Actif 93 / 85 40% 2 24.09.2026 -
Gonzalo Falcón Cienciano Actif 118 / 118 40% 3 23.09.2026 -
Javier Altamirano Universidad de Chile Actif 123 / 121 40% 1 23.09.2026 -
Ignacio Schor O'Higgins Actif 118 / 116 40% 1 21.09.2026 -
Tomás Alarcón Colo-Colo Actif 117 / 121 40% 1 20.09.2026 -
Griffin Yow New England Revolution Actif 116 / 117 40% 1 20.09.2026 -
Andrés Gudiño Cruz Azul Actif 122 / 120 40% 4 18.09.2026 -
Nicolás Campisi Sportivo Luqueno Actif 126 / 122 40% 2 18.09.2026 -
Joaquín Silva Plaza Colonia Actif 103 / 105 40% 2 16.09.2026 -
Agustín Buffa Wanderers Actif 98 / 105 40% 1 16.09.2026 -
Sebastián Jaume Albion Actif 90 / 100 40% 1 16.09.2026 -
José Hernández Queretaro Actif 109 / 113 40% 2 15.09.2026 -
Bruno Antúnez Boston River Actif 105 / 107 40% 2 15.09.2026 -
Beycker Velásquez Zamora Actif 107 / 95 40% 3 13.09.2026 -
Ángel Maciel Tacuarembo Actif 105 / 109 40% 2 11.09.2026 -
Adalberto Carrasquilla Pumas UNAM Actif 134 / 123 40% 1 09.09.2026 -
Pablo Monroy Pumas UNAM Actif 116 / 125 40% 1 09.09.2026 -
James Cardona La Equidad Actif 148 / 143 40% 1 09.09.2026 -
Manuel Rios La Equidad Actif 98 / 101 40% 1 06.09.2026 -
Héctor Holguín Veracruz Actif 100 / 115 40% 1 05.09.2026 -
Andrés Samurio Tacuarembo Actif 100 / 105 40% 1 05.09.2026 -
Zacarías López Iquique Actif 93 / 93 40% 2 02.09.2026 -
Erick Reyes Toluca Actif 142 / 150 40% 2 30.08.2026 -
Weibmar Asprilla Independiente Medellin Actif 108 / 114 40% 1 30.08.2026 -
Sebastián Guerra Barranquilla Actif 95 / 90 40% 1 27.08.2026 -
Víctor Cabezas Union Magdalena Actif 120 / 112 40% 1 25.08.2026 -
Fernando Tapia Club America Actif 122 / 115 40% 1 21.08.2026 -
Manuel Tasso New York City Actif 103 / 103 40% 1 18.08.2026 -
Jorge Hernández Tijuana Actif 123 / 111 40% 1 16.08.2026 -
Lucas Verza Olimpia Actif 106 / 115 40% 1 12.08.2026 -
Randall Rodríguez River Plate Actif 108 / 117 40% 1 12.08.2026 -
Moisés Gallo Zulia Actif 103 / 95 40% 1 11.08.2026 -
Juan Diego Jaramillo Depor Actif 102 / 100 40% 1 11.08.2026 -
Aldo Pérez Guarani Actif 104 / 103 40% 1 07.08.2026 -
Carlos Moreno Pachuca Actif 124 / 141 40% 1 05.08.2026 -
Guilherme Fernandes Córdoba Actif 133 / 115 40% 1 01.08.2026 -
Luca Zidane Leganés Actif 128 / 128 40% 1 01.08.2026 -